Time;durP1;ratioP1;P1;durP2;ratioP2;P2;SDS_P1;SDS_P2;PMS_P1;PMS_P2;Temp;Humidity;BMP_temperature;BMP_pressure;BME280_temperature;BME280_humidity;BME280_pressure;Samples;Min_cycle;Max_cycle;Signal;HPM_P1;HPM_P2
2024/04/07 00:01:31;;;;;;;;;;;15.10;36.50;16.80;98399.00;;;;5086629;28;1654;-39
2024/04/07 00:04:00;;;;;;;;;;;15.10;36.50;16.80;98379.00;;;;5091194;28;1937;-37
2024/04/07 00:06:27;;;;;;;;;;;15.00;36.40;16.80;98387.00;;;;5089331;28;1974;-37
2024/04/07 00:08:54;;;;;;;;;;;15.00;36.40;16.80;98385.00;;;;5083725;28;1881;-37
2024/04/07 00:11:20;;;;;;;;;;;15.00;36.40;16.80;98380.00;;;;5089893;28;1808;-38
2024/04/07 00:13:47;;;;;;;;;;;15.00;36.40;16.80;98383.00;;;;5103003;28;1898;-38
2024/04/07 00:16:13;;;;;;;;;;;15.00;36.40;16.70;98375.00;;;;5090621;28;1710;-38
2024/04/07 00:18:40;;;;;;;;;;;15.00;36.40;16.80;98379.00;;;;5089161;28;1697;-38
2024/04/07 00:21:08;;;;;;;;;;;15.00;36.40;16.80;98375.00;;;;5089651;28;1938;-37
2024/04/07 00:23:36;;;;;;;;;;;15.00;36.40;16.70;98373.00;;;;5086141;28;1692;-38
2024/04/07 00:26:02;;;;;;;;;;;15.00;36.50;16.70;98379.00;;;;5090954;28;1662;-38
2024/04/07 00:28:30;;;;;;;;;;;15.00;36.50;16.70;98381.00;;;;5091675;28;1701;-37
2024/04/07 00:30:56;;;;;;;;;;;15.00;36.50;16.70;98382.00;;;;5087059;28;1681;-38
2024/04/07 00:33:23;;;;;;;;;;;15.00;36.50;16.70;98373.00;;;;5089103;28;1987;-38
2024/04/07 00:35:55;;;;;;;;;;;15.00;37.10;16.70;98377.00;;;;5086924;28;1677;-38
2024/04/07 00:38:24;;;;;;;;;;;15.00;36.50;16.70;98371.00;;;;5090505;28;1663;-38
2024/04/07 00:40:50;;;;;;;;;;;15.00;36.50;16.70;98373.00;;;;5090463;28;1445;-37
2024/04/07 00:43:17;;;;;;;;;;;15.00;36.50;16.70;98369.00;;;;5089940;28;1688;-37
2024/04/07 00:45:43;;;;;;;;;;;15.00;36.50;16.70;98371.00;;;;5089788;28;1808;-37
2024/04/07 00:48:11;;;;;;;;;;;15.00;36.60;16.70;98381.00;;;;5089490;28;1773;-37
2024/04/07 00:50:37;;;;;;;;;;;15.00;36.50;16.70;98376.00;;;;5086637;28;1669;-38
2024/04/07 00:53:04;;;;;;;;;;;14.90;36.50;16.70;98372.00;;;;5089254;28;2280;-38
2024/04/07 00:55:32;;;;;;;;;;;15.00;36.50;16.70;98367.00;;;;5088903;28;1506;-38
2024/04/07 00:57:59;;;;;;;;;;;15.00;36.50;16.70;98378.00;;;;5090478;28;1708;-38
2024/04/07 01:00:27;;;;;;;;;;;15.00;36.50;16.70;98369.00;;;;5090437;28;1529;-38
2024/04/07 01:02:55;;;;;;;;;;;15.00;36.50;16.70;98368.00;;;;5095116;28;1646;-37
2024/04/07 01:05:21;;;;;;;;;;;15.00;36.50;16.70;98371.00;;;;5094364;28;2181;-37
2024/04/07 01:07:48;;;;;;;;;;;15.00;36.50;16.70;98369.00;;;;5092420;28;1665;-38
2024/04/07 01:10:14;;;;;;;;;;;15.00;36.50;16.70;98364.00;;;;5093399;28;1805;-39
2024/04/07 01:12:51;;;;;;;;;;;15.00;36.60;16.70;98357.00;;;;5092570;28;1973;-37
2024/04/07 01:15:17;;;;;;;;;;;14.90;36.50;16.70;98368.00;;;;5090248;28;1684;-38
2024/04/07 01:17:44;;;;;;;;;;;15.00;36.70;16.70;98367.00;;;;5093039;28;1925;-38
2024/04/07 01:20:11;;;;;;;;;;;15.00;36.50;16.70;98359.00;;;;5093146;28;1876;-38
2024/04/07 01:22:38;;;;;;;;;;;15.00;36.60;16.70;98362.00;;;;5091542;28;1867;-36
2024/04/07 01:25:06;;;;;;;;;;;15.00;36.50;16.70;98369.00;;;;5091180;28;1749;-37
2024/04/07 01:27:33;;;;;;;;;;;14.90;36.50;16.60;98370.00;;;;5092922;28;1891;-37
2024/04/07 01:30:00;;;;;;;;;;;14.90;36.50;16.60;98389.00;;;;5094142;28;1689;-36
2024/04/07 01:32:27;;;;;;;;;;;14.90;36.50;16.60;98369.00;;;;5092899;28;1902;-37
2024/04/07 01:34:53;;;;;;;;;;;15.00;36.60;16.60;98368.00;;;;5090349;28;2975;-35
2024/04/07 01:37:20;;;;;;;;;;;14.90;36.50;16.60;98365.00;;;;5089712;28;1834;-35
2024/04/07 01:39:46;;;;;;;;;;;14.90;36.50;16.60;98359.00;;;;5092265;28;1488;-35
2024/04/07 01:42:15;;;;;;;;;;;14.90;36.50;16.60;98354.00;;;;5092819;28;1550;-36
2024/04/07 01:44:41;;;;;;;;;;;14.90;36.50;16.60;98358.00;;;;5092164;28;1717;-35
2024/04/07 01:47:08;;;;;;;;;;;14.90;36.50;16.60;98356.00;;;;5093341;28;1641;-35
2024/04/07 01:49:34;;;;;;;;;;;14.90;36.50;16.60;98358.00;;;;5089006;28;2289;-35
2024/04/07 01:52:01;;;;;;;;;;;14.90;36.60;16.60;98363.00;;;;5093773;28;1661;-36
2024/04/07 01:54:32;;;;;;;;;;;14.90;36.50;16.60;98335.00;;;;5092864;28;1979;-36
2024/04/07 01:56:59;;;;;;;;;;;14.90;36.50;16.60;98358.00;;;;5086987;28;1700;-36
2024/04/07 01:59:27;;;;;;;;;;;14.90;36.50;16.60;98347.00;;;;5090242;28;1917;-35
2024/04/07 02:01:54;;;;;;;;;;;14.90;36.60;16.60;98346.00;;;;5094327;28;1671;-36
2024/04/07 02:04:20;;;;;;;;;;;14.90;36.60;16.60;98346.00;;;;5089803;28;1926;-35
2024/04/07 02:06:48;;;;;;;;;;;14.90;36.60;16.60;98343.00;;;;5091772;28;1772;-35
2024/04/07 02:09:14;;;;;;;;;;;14.90;36.60;16.60;98352.00;;;;5092344;28;1665;-35
2024/04/07 02:11:42;;;;;;;;;;;14.90;36.60;16.60;98344.00;;;;5089341;28;1924;-37
2024/04/07 02:14:08;;;;;;;;;;;14.90;36.60;16.60;98343.00;;;;5090569;28;1913;-35
2024/04/07 02:16:36;;;;;;;;;;;14.90;36.60;16.60;98341.00;;;;5088526;28;1791;-36
2024/04/07 02:19:02;;;;;;;;;;;14.90;36.50;16.60;98340.00;;;;5093017;28;1543;-36
2024/04/07 02:21:30;;;;;;;;;;;14.90;36.50;16.60;98343.00;;;;5092060;28;1807;-36
2024/04/07 02:23:56;;;;;;;;;;;14.90;36.50;16.60;98326.00;;;;5084250;28;1602;-36
2024/04/07 02:26:23;;;;;;;;;;;14.90;36.50;16.60;98326.00;;;;5084813;28;1934;-36
2024/04/07 02:28:49;;;;;;;;;;;14.90;36.60;16.60;98327.00;;;;5084680;28;1602;-36
2024/04/07 02:31:16;;;;;;;;;;;14.90;36.60;16.60;98326.00;;;;5092737;28;1542;-37
2024/04/07 02:33:46;;;;;;;;;;;14.90;36.60;16.60;98328.00;;;;5091105;28;2027;-37
2024/04/07 02:36:13;;;;;;;;;;;14.90;36.60;16.60;98323.00;;;;5091600;28;1507;-37
2024/04/07 02:38:39;;;;;;;;;;;14.80;36.50;16.60;98326.00;;;;5087971;28;1876;-38
2024/04/07 02:41:06;;;;;;;;;;;14.80;36.50;16.60;98315.00;;;;5091718;28;1625;-37
2024/04/07 02:43:32;;;;;;;;;;;14.90;36.60;16.60;98325.00;;;;5088960;28;1720;-36
2024/04/07 02:48:45;;;;;;;;;;;14.90;36.60;16.60;98321.00;;;;5090668;28;1866;-37
2024/04/07 02:51:12;;;;;;;;;;;14.80;36.50;16.50;98306.00;;;;5091802;28;1614;-36
2024/04/07 02:53:40;;;;;;;;;;;14.80;36.50;16.50;98293.00;;;;5091314;28;1946;-37
2024/04/07 02:56:07;;;;;;;;;;;14.80;36.50;16.50;98301.00;;;;5092536;28;1659;-36
2024/04/07 02:58:33;;;;;;;;;;;14.80;36.50;16.50;98295.00;;;;5090758;28;1931;-36
2024/04/07 03:01:04;;;;;;;;;;;14.80;36.50;16.60;98304.00;;;;5092443;28;1827;-36
2024/04/07 03:03:30;;;;;;;;;;;14.80;36.50;16.60;98304.00;;;;5091155;28;1683;-37
2024/04/07 03:05:59;;;;;;;;;;;14.80;36.60;16.50;98306.00;;;;5085088;28;2329;-36
2024/04/07 03:08:25;;;;;;;;;;;14.80;36.60;16.50;98305.00;;;;5083721;28;1706;-36
2024/04/07 03:10:58;;;;;;;;;;;14.80;36.50;16.50;98311.00;;;;5088133;28;2169;-37
2024/04/07 03:13:25;;;;;;;;;;;14.80;36.60;16.50;98313.00;;;;5090776;28;1959;-36
2024/04/07 03:15:52;;;;;;;;;;;14.80;36.50;16.50;98307.00;;;;5086377;28;1741;-36
2024/04/07 03:18:18;;;;;;;;;;;14.80;36.60;16.50;98294.00;;;;5090956;28;1451;-37
2024/04/07 03:20:45;;;;;;;;;;;14.80;36.50;16.50;98312.00;;;;5087774;28;1559;-37
2024/04/07 03:23:13;;;;;;;;;;;14.80;36.50;16.50;98310.00;;;;5092228;28;1656;-37
2024/04/07 03:25:40;;;;;;;;;;;14.80;36.60;16.50;98305.00;;;;5091343;28;1656;-37
2024/04/07 03:28:06;;;;;;;;;;;14.80;36.60;16.50;98306.00;;;;5085241;28;1750;-36
2024/04/07 03:30:33;;;;;;;;;;;14.80;36.60;16.50;98310.00;;;;5090586;28;2408;-36
2024/04/07 03:33:00;;;;;;;;;;;14.80;36.60;16.50;98308.00;;;;5089254;28;1985;-37
2024/04/07 03:35:27;;;;;;;;;;;14.80;36.60;16.50;98301.00;;;;5089230;28;2798;-37
2024/04/07 03:37:54;;;;;;;;;;;14.80;36.60;16.50;98304.00;;;;5087810;28;1991;-37
2024/04/07 03:40:23;;;;;;;;;;;14.80;36.60;16.50;98305.00;;;;5091805;28;1672;-36
2024/04/07 03:42:50;;;;;;;;;;;14.80;36.50;16.50;98295.00;;;;5092341;28;1706;-37
2024/04/07 03:45:18;;;;;;;;;;;14.80;36.50;16.50;98311.00;;;;5084947;28;2704;-36
2024/04/07 03:47:45;;;;;;;;;;;14.80;36.60;16.50;98326.00;;;;5086992;28;1836;-37
2024/04/07 03:50:12;;;;;;;;;;;14.80;36.60;16.50;98331.00;;;;5090163;28;2181;-37
2024/04/07 03:52:39;;;;;;;;;;;14.80;36.60;16.50;98326.00;;;;5088027;28;1800;-36
2024/04/07 03:55:06;;;;;;;;;;;14.80;36.60;16.50;98341.00;;;;5087133;28;2087;-36
2024/04/07 03:57:35;;;;;;;;;;;14.80;36.60;16.50;98334.00;;;;5087305;28;2393;-36
2024/04/07 04:00:01;;;;;;;;;;;14.80;36.50;16.50;98341.00;;;;5088770;28;1669;-37
2024/04/07 04:02:28;;;;;;;;;;;14.80;36.50;16.40;98336.00;;;;5088047;28;1740;-36
2024/04/07 04:04:55;;;;;;;;;;;14.80;36.50;16.40;98341.00;;;;5087078;28;1807;-37
2024/04/07 04:07:22;;;;;;;;;;;14.80;36.60;16.40;98352.00;;;;5088366;28;1484;-37
2024/04/07 04:09:51;;;;;;;;;;;14.80;37.20;16.50;98345.00;;;;5087542;28;1544;-36
2024/04/07 04:12:18;;;;;;;;;;;14.80;36.60;16.40;98340.00;;;;5090057;28;2143;-37
2024/04/07 04:14:45;;;;;;;;;;;14.70;36.60;16.40;98343.00;;;;5088757;28;1914;-37
2024/04/07 04:17:13;;;;;;;;;;;14.80;36.60;16.40;98361.00;;;;5088860;28;1792;-35
2024/04/07 04:19:39;;;;;;;;;;;14.70;36.60;16.40;98378.00;;;;5085529;28;1713;-37
2024/04/07 04:22:07;;;;;;;;;;;14.80;36.60;16.40;98384.00;;;;5088518;28;1522;-36
2024/04/07 04:24:33;;;;;;;;;;;14.80;36.60;16.40;98375.00;;;;5085981;28;1667;-36
2024/04/07 04:27:00;;;;;;;;;;;14.70;36.60;16.40;98372.00;;;;5085186;28;1675;-36
2024/04/07 04:29:26;;;;;;;;;;;14.80;36.60;16.40;98385.00;;;;5088069;28;1815;-37
2024/04/07 04:31:56;;;;;;;;;;;14.80;36.50;16.40;98398.00;;;;5086853;28;1867;-36
2024/04/07 04:34:22;;;;;;;;;;;14.80;36.50;16.40;98389.00;;;;5088011;28;1975;-36
2024/04/07 04:36:50;;;;;;;;;;;14.80;36.50;16.40;98393.00;;;;5088186;28;1738;-37
2024/04/07 04:39:16;;;;;;;;;;;14.70;36.50;16.40;98403.00;;;;5088576;28;1668;-36
2024/04/07 04:41:45;;;;;;;;;;;14.80;36.60;16.40;98397.00;;;;5086721;28;1680;-37
2024/04/07 04:44:12;;;;;;;;;;;14.70;36.60;16.40;98405.00;;;;5089087;28;1744;-36
2024/04/07 04:46:41;;;;;;;;;;;14.70;36.50;16.40;98400.00;;;;5077428;28;1665;-36
2024/04/07 04:49:09;;;;;;;;;;;14.70;36.50;16.40;98405.00;;;;5085812;28;1612;-36
2024/04/07 04:51:36;;;;;;;;;;;14.70;36.60;16.40;98400.00;;;;5085366;28;1843;-36
2024/04/07 04:54:02;;;;;;;;;;;14.70;36.60;16.40;98411.00;;;;5089646;28;1913;-37
2024/04/07 04:56:29;;;;;;;;;;;14.70;36.60;16.40;98417.00;;;;5082699;28;1807;-36
2024/04/07 04:58:57;;;;;;;;;;;14.70;36.50;16.40;98420.00;;;;5088735;28;1669;-37
2024/04/07 05:01:24;;;;;;;;;;;14.70;36.60;16.40;98420.00;;;;5086586;28;1754;-36
2024/04/07 05:03:50;;;;;;;;;;;14.70;36.60;16.40;98433.00;;;;5091409;28;1669;-37
2024/04/07 05:06:19;;;;;;;;;;;14.70;36.60;16.40;98428.00;;;;5088982;28;1655;-37
2024/04/07 05:08:45;;;;;;;;;;;14.70;36.60;16.40;98436.00;;;;5087536;28;1667;-37
2024/04/07 05:11:12;;;;;;;;;;;14.70;36.60;16.40;98436.00;;;;5088951;28;1694;-36
2024/04/07 05:13:39;;;;;;;;;;;14.70;36.50;16.40;98451.00;;;;5085754;28;1979;-36
2024/04/07 05:16:06;;;;;;;;;;;14.70;36.50;16.40;98448.00;;;;5089064;28;1656;-37
2024/04/07 05:18:32;;;;;;;;;;;14.70;36.50;16.40;98465.00;;;;5089423;28;1664;-36
2024/04/07 05:21:04;;;;;;;;;;;14.80;36.60;16.40;98463.00;;;;5085275;28;1684;-37
2024/04/07 05:23:32;;;;;;;;;;;14.70;36.50;16.40;98465.00;;;;5085999;28;2330;-36
2024/04/07 05:26:08;;;;;;;;;;;14.70;36.50;16.40;98456.00;;;;5079023;28;1942;-37
2024/04/07 05:28:34;;;;;;;;;;;14.70;36.50;16.40;98462.00;;;;5081123;28;1480;-36
2024/04/07 05:31:06;;;;;;;;;;;14.70;36.50;16.40;98477.00;;;;5088869;28;1652;-37
2024/04/07 05:33:32;;;;;;;;;;;14.70;36.50;16.40;98470.00;;;;5085028;28;1906;-36
2024/04/07 05:36:00;;;;;;;;;;;14.70;36.50;16.40;98477.00;;;;5086645;28;1725;-36
2024/04/07 05:38:26;;;;;;;;;;;14.70;36.40;16.40;98481.00;;;;5086724;28;1810;-36
2024/04/07 05:40:55;;;;;;;;;;;14.70;36.50;16.40;98482.00;;;;5089067;28;1670;-36
2024/04/07 05:43:22;;;;;;;;;;;14.70;36.50;16.40;98484.00;;;;5084987;28;1744;-35
2024/04/07 05:45:50;;;;;;;;;;;14.80;36.50;16.40;98488.00;;;;5088319;28;1930;-37
2024/04/07 05:48:17;;;;;;;;;;;14.80;36.50;16.40;98505.00;;;;5091650;28;1688;-37
2024/04/07 05:50:44;;;;;;;;;;;14.70;36.50;16.40;98485.00;;;;5086752;28;1471;-36
2024/04/07 05:53:10;;;;;;;;;;;14.80;36.50;16.40;98498.00;;;;5092400;28;1752;-37
2024/04/07 05:55:37;;;;;;;;;;;14.80;36.50;16.40;98502.00;;;;5083455;28;1981;-36
2024/04/07 05:58:05;;;;;;;;;;;14.80;36.50;16.40;98500.00;;;;5086183;28;1569;-37
2024/04/07 06:00:33;;;;;;;;;;;14.80;36.50;16.50;98508.00;;;;5090339;28;1670;-37
2024/04/07 06:03:00;;;;;;;;;;;14.80;36.50;16.50;98505.00;;;;5087156;28;1958;-35
2024/04/07 06:05:27;;;;;;;;;;;14.80;36.50;16.50;98508.00;;;;5091051;28;1659;-35
2024/04/07 06:07:53;;;;;;;;;;;14.80;37.00;16.50;98516.00;;;;5089150;28;1702;-37
2024/04/07 06:10:21;;;;;;;;;;;14.80;36.50;16.50;98529.00;;;;5092330;28;1664;-37
2024/04/07 06:12:47;;;;;;;;;;;14.80;36.50;16.50;98524.00;;;;5090361;28;1706;-36
2024/04/07 06:15:15;;;;;;;;;;;14.80;36.50;16.50;98523.00;;;;5090839;28;1991;-37
2024/04/07 06:17:43;;;;;;;;;;;14.80;36.50;16.50;98542.00;;;;5090915;28;1588;-36
2024/04/07 06:20:10;;;;;;;;;;;14.80;36.40;16.50;98529.00;;;;5092540;28;1653;-35
2024/04/07 06:22:37;;;;;;;;;;;14.80;36.50;16.50;98540.00;;;;5086165;28;2156;-37
2024/04/07 06:25:04;;;;;;;;;;;14.80;36.40;16.50;98525.00;;;;5089564;28;1653;-36
2024/04/07 06:27:32;;;;;;;;;;;14.90;36.40;16.50;98534.00;;;;5085869;28;1949;-37
2024/04/07 06:30:00;;;;;;;;;;;14.90;36.50;16.50;98529.00;;;;5102481;28;1589;-37
2024/04/07 06:32:27;;;;;;;;;;;14.80;36.30;16.50;98540.00;;;;5091037;28;1692;-36
2024/04/07 06:34:54;;;;;;;;;;;14.90;36.40;16.60;98535.00;;;;5091530;28;2234;-36
2024/04/07 06:37:21;;;;;;;;;;;14.90;36.30;16.60;98542.00;;;;5089338;28;1880;-36
2024/04/07 06:39:48;;;;;;;;;;;15.00;36.30;16.60;98537.00;;;;5088442;28;1805;-36
2024/04/07 06:42:23;;;;;;;;;;;15.00;36.20;16.70;98551.00;;;;5092326;28;1961;-36
2024/04/07 06:44:50;;;;;;;;;;;15.00;36.20;16.70;98548.00;;;;5091837;28;1627;-36
2024/04/07 06:47:17;;;;;;;;;;;15.10;36.10;16.80;98546.00;;;;5092298;28;1694;-36
2024/04/07 06:49:48;;;;;;;;;;;15.20;36.00;16.80;98548.00;;;;5086564;28;1452;-36
2024/04/07 06:52:15;;;;;;;;;;;15.20;35.90;16.80;98540.00;;;;5090160;28;1806;-36
2024/04/07 06:54:43;;;;;;;;;;;15.30;35.90;16.90;98556.00;;;;5089314;28;1898;-36
2024/04/07 06:57:09;;;;;;;;;;;15.30;35.90;16.90;98544.00;;;;5090478;28;1709;-35
2024/04/07 06:59:37;;;;;;;;;;;15.30;35.80;17.00;98549.00;;;;5085063;28;1699;-37
2024/04/07 07:02:04;;;;;;;;;;;15.30;35.70;17.00;98546.00;;;;5085644;28;1614;-36
2024/04/07 07:04:31;;;;;;;;;;;15.40;35.80;17.10;98558.00;;;;5089884;28;1657;-36
2024/04/07 07:06:58;;;;;;;;;;;15.40;35.70;17.10;98565.00;;;;5088197;28;1513;-37
2024/04/07 07:09:28;;;;;;;;;;;15.50;35.80;17.10;98575.00;;;;5086970;28;1649;-35
2024/04/07 07:11:55;;;;;;;;;;;15.50;35.70;17.10;98579.00;;;;5087858;28;1661;-37
2024/04/07 07:14:22;;;;;;;;;;;15.50;35.70;17.20;98579.00;;;;5087935;28;1971;-36
2024/04/07 07:16:48;;;;;;;;;;;15.60;35.60;17.20;98580.00;;;;5088701;28;1562;-36
2024/04/07 07:19:15;;;;;;;;;;;15.60;35.50;17.30;98588.00;;;;5090978;28;1681;-36
2024/04/07 07:21:41;;;;;;;;;;;15.70;35.50;17.30;98587.00;;;;5081732;28;2107;-37
2024/04/07 07:24:10;;;;;;;;;;;15.70;35.50;17.30;98593.00;;;;5085844;28;1545;-37
2024/04/07 07:26:36;;;;;;;;;;;15.70;35.50;17.40;98595.00;;;;5083277;28;1700;-37
2024/04/07 07:29:03;;;;;;;;;;;15.70;35.50;17.40;98588.00;;;;5076412;28;1955;-37
2024/04/07 07:31:29;;;;;;;;;;;15.80;35.50;17.40;98588.00;;;;5086309;28;1662;-36
2024/04/07 07:33:57;;;;;;;;;;;15.80;35.50;17.40;98589.00;;;;5078721;28;1902;-36
2024/04/07 07:36:23;;;;;;;;;;;15.80;35.50;17.50;98590.00;;;;5082747;28;1967;-37
2024/04/07 07:38:50;;;;;;;;;;;15.80;35.50;17.50;98588.00;;;;5086492;28;1554;-36
2024/04/07 07:41:18;;;;;;;;;;;15.80;35.50;17.50;98599.00;;;;5084125;28;1665;-36
2024/04/07 07:43:45;;;;;;;;;;;15.80;35.50;17.50;98613.00;;;;5086939;28;1725;-36
2024/04/07 07:46:11;;;;;;;;;;;15.80;35.50;17.50;98612.00;;;;5084201;28;1885;-37
2024/04/07 07:48:39;;;;;;;;;;;15.80;35.50;17.50;98617.00;;;;5087425;28;1955;-36
2024/04/07 07:51:07;;;;;;;;;;;15.90;35.60;17.60;98625.00;;;;5089520;28;1543;-36
2024/04/07 07:53:35;;;;;;;;;;;15.90;35.50;17.60;98621.00;;;;5080924;28;1684;-37
2024/04/07 07:56:01;;;;;;;;;;;15.90;35.50;17.60;98630.00;;;;5082418;28;1983;-36
2024/04/07 07:58:29;;;;;;;;;;;16.00;35.50;17.60;98629.00;;;;5090467;28;2148;-35
2024/04/07 08:00:55;;;;;;;;;;;16.00;35.40;17.70;98618.00;;;;5082426;28;1992;-36
2024/04/07 08:03:24;;;;;;;;;;;16.00;35.30;17.70;98621.00;;;;5083574;28;1799;-36
2024/04/07 08:05:50;;;;;;;;;;;16.10;35.30;17.70;98595.00;;;;5082318;28;1815;-36
2024/04/07 08:08:20;;;;;;;;;;;16.10;35.20;17.80;98625.00;;;;5086997;28;1657;-36
2024/04/07 08:10:46;;;;;;;;;;;16.10;35.20;17.80;98626.00;;;;5086065;28;1872;-36
2024/04/07 08:13:13;;;;;;;;;;;16.10;35.30;17.80;98625.00;;;;5091665;28;2156;-36
2024/04/07 08:15:43;;;;;;;;;;;16.10;35.30;17.80;98631.00;;;;5085047;28;1934;-36
2024/04/07 08:18:10;;;;;;;;;;;16.10;35.30;17.80;98626.00;;;;5085972;28;1700;-36
2024/04/07 08:20:37;;;;;;;;;;;16.10;35.30;17.80;98626.00;;;;5085201;28;1700;-36
2024/04/07 08:23:05;;;;;;;;;;;16.20;35.40;17.90;98626.00;;;;5087557;28;1675;-36
2024/04/07 08:25:33;;;;;;;;;;;16.20;35.30;17.90;98633.00;;;;5089497;28;1828;-36
2024/04/07 08:28:01;;;;;;;;;;;16.20;35.30;17.90;98639.00;;;;5083612;28;1534;-36
2024/04/07 08:30:28;;;;;;;;;;;16.20;35.30;18.00;98637.00;;;;5089348;28;1621;-35
2024/04/07 08:32:57;;;;;;;;;;;16.20;35.30;18.00;98635.00;;;;5079287;28;1591;-36
2024/04/07 08:35:23;;;;;;;;;;;16.20;35.20;18.00;98624.00;;;;5086550;28;1959;-37
2024/04/07 08:37:51;;;;;;;;;;;16.20;35.20;18.00;98616.00;;;;5082561;28;1757;-36
2024/04/07 08:40:17;;;;;;;;;;;16.30;35.20;18.00;98623.00;;;;5086076;28;1666;-37
2024/04/07 08:42:44;;;;;;;;;;;16.30;35.20;18.00;98630.00;;;;5089169;28;2130;-37
2024/04/07 08:45:11;;;;;;;;;;;16.30;35.30;18.10;98626.00;;;;5082711;28;1918;-37
2024/04/07 08:47:38;;;;;;;;;;;16.30;35.20;18.10;98628.00;;;;5085212;28;1699;-37
2024/04/07 08:50:06;;;;;;;;;;;16.30;35.20;18.10;98620.00;;;;5089973;28;1676;-36
2024/04/07 08:52:34;;;;;;;;;;;16.30;35.20;18.10;98617.00;;;;5085832;28;1822;-38
2024/04/07 08:55:00;;;;;;;;;;;16.30;35.20;18.10;98607.00;;;;5089849;28;1907;-36
2024/04/07 08:57:27;;;;;;;;;;;16.30;35.20;18.10;98607.00;;;;5089373;28;1795;-37
2024/04/07 08:59:53;;;;;;;;;;;16.40;35.20;18.10;98608.00;;;;5088928;28;1480;-37
2024/04/07 09:02:20;;;;;;;;;;;16.40;35.30;18.10;98616.00;;;;5090176;28;1628;-38
2024/04/07 09:04:46;;;;;;;;;;;16.40;35.20;18.10;98620.00;;;;5092082;28;1696;-37
2024/04/07 09:07:15;;;;;;;;;;;16.40;35.30;18.10;98624.00;;;;5091378;28;1672;-37
2024/04/07 09:09:41;;;;;;;;;;;16.40;35.20;18.10;98618.00;;;;5087913;28;1740;-37
2024/04/07 09:12:09;;;;;;;;;;;16.40;35.20;18.10;98628.00;;;;5089842;28;1745;-37
2024/04/07 09:14:36;;;;;;;;;;;16.40;35.10;18.10;98635.00;;;;5088470;28;1981;-37
2024/04/07 09:17:03;;;;;;;;;;;16.40;35.10;18.10;98643.00;;;;5089817;28;1708;-37
2024/04/07 09:19:31;;;;;;;;;;;16.40;35.80;18.10;98647.00;;;;5095962;28;1512;-37
2024/04/07 09:21:58;;;;;;;;;;;16.40;35.20;18.10;98650.00;;;;5092145;28;1676;-37
2024/04/07 09:24:26;;;;;;;;;;;16.40;35.30;18.10;98656.00;;;;5096103;28;1963;-37
2024/04/07 09:26:53;;;;;;;;;;;16.40;35.30;18.10;98657.00;;;;5092056;28;2327;-37
2024/04/07 09:29:19;;;;;;;;;;;16.30;35.30;18.10;98656.00;;;;5099946;28;1803;-36
2024/04/07 09:31:46;;;;;;;;;;;16.30;35.30;18.10;98669.00;;;;5092890;28;1743;-37
2024/04/07 09:34:13;;;;;;;;;;;16.30;35.40;18.10;98670.00;;;;5085666;28;1988;-37
2024/04/07 09:36:40;;;;;;;;;;;16.30;35.40;18.10;98679.00;;;;5092428;28;1663;-38
2024/04/07 09:39:07;;;;;;;;;;;16.30;35.40;18.10;98686.00;;;;5095224;28;2022;-37
2024/04/07 09:41:35;;;;;;;;;;;16.30;35.40;18.10;98678.00;;;;5092924;28;1649;-36
2024/04/07 09:44:05;;;;;;;;;;;16.40;35.40;18.10;98683.00;;;;5096325;28;1619;-37
2024/04/07 09:46:34;;;;;;;;;;;16.30;35.40;18.10;98678.00;;;;5095136;28;1759;-37
2024/04/07 09:49:04;;;;;;;;;;;16.40;35.30;18.10;98682.00;;;;5092512;28;1692;-37
2024/04/07 09:51:30;;;;;;;;;;;16.30;35.40;18.10;98686.00;;;;5094837;28;1696;-37
2024/04/07 09:54:01;;;;;;;;;;;16.40;35.40;18.10;98678.00;;;;5090180;28;2321;-37
2024/04/07 09:56:28;;;;;;;;;;;16.40;35.40;18.10;98685.00;;;;5092961;28;1910;-37
2024/04/07 09:58:57;;;;;;;;;;;16.40;35.40;18.10;98677.00;;;;5091480;28;1909;-37
2024/04/07 10:01:24;;;;;;;;;;;16.40;35.40;18.10;98684.00;;;;5089290;28;1872;-37
2024/04/07 10:03:52;;;;;;;;;;;16.40;35.40;18.20;98684.00;;;;5084856;28;1479;-35
2024/04/07 10:06:19;;;;;;;;;;;16.40;35.40;18.10;98685.00;;;;5086783;28;1728;-37
2024/04/07 10:08:46;;;;;;;;;;;16.40;35.40;18.20;98683.00;;;;5090615;28;1896;-37
2024/04/07 10:11:15;;;;;;;;;;;16.40;35.40;18.20;98699.00;;;;5091609;28;1942;-36
2024/04/07 10:13:42;;;;;;;;;;;16.40;35.40;18.20;98706.00;;;;5091202;28;1783;-38
2024/04/07 10:16:10;;;;;;;;;;;16.40;35.40;18.20;98713.00;;;;5090578;28;1992;-37
2024/04/07 10:18:38;;;;;;;;;;;16.40;35.40;18.20;98697.00;;;;5092371;28;1805;-37
2024/04/07 10:21:05;;;;;;;;;;;16.40;35.40;18.20;98684.00;;;;5092266;28;1690;-37
2024/04/07 10:23:34;;;;;;;;;;;16.40;35.40;18.20;98694.00;;;;5090916;28;1690;-37
2024/04/07 10:26:03;;;;;;;;;;;16.40;35.40;18.20;98697.00;;;;5087077;28;1832;-36
2024/04/07 10:28:45;;;;;;;;;;;16.40;35.40;18.30;98710.00;;;;5095012;28;1634;-37
2024/04/07 10:31:16;;;;;;;;;;;16.40;35.40;18.30;98707.00;;;;5089830;28;1806;-37
2024/04/07 10:33:43;;;;;;;;;;;16.40;35.40;18.30;98702.00;;;;5091853;28;1669;-37
2024/04/07 10:36:14;;;;;;;;;;;16.40;35.40;18.30;98702.00;;;;5083143;28;1910;-36
2024/04/07 10:38:46;;;;;;;;;;;16.40;35.40;18.30;98704.00;;;;5087456;28;1445;-37
2024/04/07 10:41:17;;;;;;;;;;;16.40;35.40;18.30;98689.00;;;;5085793;28;1782;-36
2024/04/07 10:43:45;;;;;;;;;;;16.40;35.40;18.30;98695.00;;;;5090881;28;1843;-37
2024/04/07 10:46:11;;;;;;;;;;;16.50;35.50;18.30;98698.00;;;;5091261;28;1560;-37
2024/04/07 10:48:39;;;;;;;;;;;16.50;35.50;18.30;98704.00;;;;5092757;28;1448;-37
2024/04/07 10:51:09;;;;;;;;;;;16.50;35.50;18.30;98699.00;;;;5090465;28;1633;-37
2024/04/07 10:53:37;;;;;;;;;;;16.50;35.50;18.30;98693.00;;;;5091390;28;1919;-37
2024/04/07 10:56:03;;;;;;;;;;;16.50;35.50;18.30;98698.00;;;;5090801;28;1966;-37
2024/04/07 10:58:30;;;;;;;;;;;16.50;35.50;18.30;98708.00;;;;5092058;28;1685;-37
2024/04/07 11:00:56;;;;;;;;;;;16.50;35.50;18.30;98694.00;;;;5094233;28;2223;-37
2024/04/07 11:03:25;;;;;;;;;;;16.50;35.50;18.30;98704.00;;;;5092043;28;1664;-36
2024/04/07 11:05:52;;;;;;;;;;;16.50;35.50;18.30;98708.00;;;;5088821;28;1842;-36
2024/04/07 11:08:20;;;;;;;;;;;16.50;35.40;18.40;98711.00;;;;5088413;28;1606;-37
2024/04/07 11:10:50;;;;;;;;;;;16.50;35.40;18.40;98707.00;;;;5086078;28;1692;-36
2024/04/07 11:13:18;;;;;;;;;;;16.50;35.40;18.30;98706.00;;;;5088154;28;1953;-37
2024/04/07 11:15:45;;;;;;;;;;;16.50;35.40;18.40;98706.00;;;;5089986;28;1913;-37
2024/04/07 11:18:13;;;;;;;;;;;16.50;35.40;18.30;98705.00;;;;5087748;28;1915;-37
2024/04/07 11:20:39;;;;;;;;;;;16.50;35.40;18.40;98708.00;;;;5085684;28;1685;-37
2024/04/07 11:23:09;;;;;;;;;;;16.50;35.40;18.40;98697.00;;;;5089378;28;1903;-37
2024/04/07 11:25:35;;;;;;;;;;;16.50;35.40;18.40;98684.00;;;;5088219;28;1826;-36
2024/04/07 11:28:03;;;;;;;;;;;16.50;35.40;18.40;98689.00;;;;5090893;28;1923;-37
2024/04/07 11:30:32;;;;;;;;;;;16.50;35.40;18.40;98682.00;;;;5086727;28;1958;-37
2024/04/07 11:33:02;;;;;;;;;;;16.50;35.40;18.40;98690.00;;;;5093003;28;1661;-37
2024/04/07 11:35:28;;;;;;;;;;;16.50;35.40;18.40;98674.00;;;;5090024;28;1913;-37
2024/04/07 11:37:56;;;;;;;;;;;16.50;35.40;18.30;98685.00;;;;5085587;28;1767;-37
2024/04/07 11:40:23;;;;;;;;;;;16.50;35.40;18.40;98677.00;;;;5092123;28;1885;-36
2024/04/07 11:42:51;;;;;;;;;;;16.60;35.50;18.40;98681.00;;;;5086395;28;1544;-37
2024/04/07 11:45:17;;;;;;;;;;;16.60;35.40;18.40;98672.00;;;;5090173;28;1911;-37
2024/04/07 11:47:44;;;;;;;;;;;16.60;35.40;18.40;98677.00;;;;5089038;28;1661;-36
2024/04/07 11:50:11;;;;;;;;;;;16.60;35.40;18.40;98664.00;;;;5088606;28;1697;-37
2024/04/07 11:52:37;;;;;;;;;;;16.60;35.50;18.40;98666.00;;;;5088838;28;1744;-36
2024/04/07 11:55:05;;;;;;;;;;;16.60;35.40;18.50;98667.00;;;;5093873;28;1966;-36
2024/04/07 11:57:32;;;;;;;;;;;16.60;35.40;18.40;98671.00;;;;5092242;28;2091;-37
2024/04/07 12:00:00;;;;;;;;;;;16.60;35.40;18.50;98668.00;;;;5092351;28;1654;-36
2024/04/07 12:02:26;;;;;;;;;;;16.60;35.40;18.50;98675.00;;;;5080487;28;1407;-36
2024/04/07 12:04:54;;;;;;;;;;;16.60;35.40;18.50;98682.00;;;;5089564;28;1658;-37
2024/04/07 12:07:21;;;;;;;;;;;16.60;35.40;18.50;98677.00;;;;5088824;28;1872;-36
2024/04/07 12:09:48;;;;;;;;;;;16.60;35.40;18.50;98680.00;;;;5082253;28;1671;-37
2024/04/07 12:12:14;;;;;;;;;;;16.60;35.30;18.50;98679.00;;;;5085888;28;1690;-37